Time;durP1;ratioP1;P1;durP2;ratioP2;P2;SDS_P1;SDS_P2;PMS_P1;PMS_P2;Temp;Humidity;BMP_temperature;BMP_pressure;BME280_temperature;BME280_humidity;BME280_pressure;Samples;Min_cycle;Max_cycle;Signal;HPM_P1;HPM_P2
2022/04/17 00:00:16;;;;;;;8.20;7.40;;;7.20;1.00;;;;;;5099791;28;20526;-57
2022/04/17 00:02:42;;;;;;;8.87;7.97;;;7.30;1.00;;;;;;5102165;28;20194;-56
2022/04/17 00:05:08;;;;;;;8.67;7.60;;;7.30;1.00;;;;;;5096661;28;20986;-55
2022/04/17 00:07:35;;;;;;;10.70;8.53;;;7.30;1.00;;;;;;5103998;28;20228;-56
2022/04/17 00:10:02;;;;;;;9.80;8.80;;;7.30;1.00;;;;;;5097453;28;20944;-57
2022/04/17 00:12:28;;;;;;;13.30;9.10;;;7.20;1.00;;;;;;5104295;28;20377;-56
2022/04/17 00:14:55;;;;;;;10.13;9.00;;;7.20;1.00;;;;;;5103980;28;20543;-57
2022/04/17 00:17:21;;;;;;;11.20;9.20;;;7.30;1.00;;;;;;5107444;28;20182;-56
2022/04/17 00:19:47;;;;;;;10.60;8.17;;;;;;;;;;5106118;28;20986;-56
2022/04/17 00:22:13;;;;;;;10.67;8.73;;;7.30;1.00;;;;;;5099665;28;20441;-57
2022/04/17 00:24:39;;;;;;;10.67;8.50;;;7.30;1.00;;;;;;5095334;28;20441;-57
2022/04/17 00:27:05;;;;;;;11.97;10.67;;;7.30;1.00;;;;;;5099859;28;20175;-57
2022/04/17 00:29:31;;;;;;;11.20;8.90;;;7.30;1.00;;;;;;5103911;28;21086;-57
2022/04/17 00:31:59;;;;;;;14.00;10.77;;;7.30;1.00;;;;;;5104042;28;20190;-56
2022/04/17 00:34:26;;;;;;;11.03;10.03;;;7.20;1.00;;;;;;5104850;28;20202;-57
2022/04/17 00:36:52;;;;;;;16.63;11.13;;;7.20;1.00;;;;;;5101477;28;20441;-57
2022/04/17 00:39:17;;;;;;;13.80;10.60;;;7.20;1.00;;;;;;5101607;28;20536;-56
2022/04/17 00:41:46;;;;;;;13.47;11.60;;;7.20;1.00;;;;;;5104033;28;20526;-57
2022/04/17 00:44:13;;;;;;;16.30;12.00;;;7.20;1.00;;;;;;5098721;28;20183;-57
2022/04/17 00:46:40;;;;;;;17.23;12.87;;;7.20;1.00;;;;;;5095029;28;20521;-56
2022/04/17 00:49:08;;;;;;;14.47;11.30;;;7.20;1.00;;;;;;5094131;28;20861;-56
2022/04/17 00:51:35;;;;;;;13.33;11.80;;;7.10;1.00;;;;;;5093141;28;21041;-57
2022/04/17 00:54:03;;;;;;;14.20;11.90;;;7.10;1.00;;;;;;5095424;28;20961;-57
2022/04/17 00:56:30;;;;;;;16.27;12.70;;;6.80;1.00;;;;;;5105609;28;20474;-57
2022/04/17 00:58:56;;;;;;;16.80;11.77;;;6.70;1.00;;;;;;5104540;28;20462;-56
2022/04/17 01:01:22;;;;;;;16.10;13.17;;;6.70;1.00;;;;;;5099736;28;20452;-57
2022/04/17 01:03:49;;;;;;;15.07;12.13;;;6.70;1.00;;;;;;5104147;28;20468;-57
2022/04/17 01:06:15;;;;;;;16.60;11.80;;;6.70;1.00;;;;;;5093019;28;20451;-57
2022/04/17 01:08:42;;;;;;;14.10;12.37;;;6.60;1.00;;;;;;5094274;28;20539;-56
2022/04/17 01:11:11;;;;;;;19.03;12.30;;;6.50;1.00;;;;;;5097472;28;20622;-56
2022/04/17 01:13:41;;;;;;;15.83;12.17;;;6.50;1.00;;;;;;5093716;28;20464;-58
2022/04/17 01:16:07;;;;;;;14.73;12.33;;;6.50;1.00;;;;;;5100608;28;20455;-58
2022/04/17 01:18:55;;;;;;;16.00;10.80;;;6.50;1.00;;;;;;5097164;28;20467;-56
2022/04/17 01:21:24;;;;;;;17.10;11.00;;;6.30;1.00;;;;;;5103139;28;20467;-57
2022/04/17 01:29:19;;;;;;;14.10;10.87;;;6.50;1.00;;;;;;5098616;28;20580;-56
2022/04/17 01:31:46;;;;;;;14.73;11.07;;;6.40;1.00;;;;;;5096082;28;20642;-56
2022/04/17 01:34:15;;;;;;;12.13;11.00;;;6.30;1.00;;;;;;5098103;28;20213;-56
2022/04/17 01:36:42;;;;;;;18.40;11.80;;;6.30;1.00;;;;;;5097686;28;20454;-57
2022/04/17 01:39:08;;;;;;;14.30;12.37;;;6.30;1.00;;;;;;5107103;28;20443;-58
2022/04/17 01:41:33;;;;;;;13.77;10.97;;;6.30;1.00;;;;;;5103636;28;22227;-57
2022/04/17 01:43:58;;;;;;;12.97;11.57;;;6.30;1.00;;;;;;5105106;28;20206;-56
2022/04/17 01:46:24;;;;;;;18.77;11.97;;;6.20;1.00;;;;;;5102960;28;20197;-56
2022/04/17 01:48:49;;;;;;;15.30;11.83;;;6.10;1.00;;;;;;5097704;28;21325;-55
2022/04/17 01:51:15;;;;;;;15.70;12.93;;;5.90;1.00;;;;;;5106130;28;20660;-57
2022/04/17 01:53:40;;;;;;;12.70;11.37;;;5.90;1.00;;;;;;5099608;28;20286;-56
2022/04/17 01:56:06;;;;;;;17.83;13.10;;;6.00;1.00;;;;;;5099315;28;20209;-57
2022/04/17 01:58:32;;;;;;;14.03;11.73;;;6.00;1.00;;;;;;5099082;28;20193;-58
2022/04/17 02:00:57;;;;;;;12.80;11.50;;;6.00;1.00;;;;;;5095773;28;20178;-57
2022/04/17 02:03:23;;;;;;;13.60;10.97;;;5.80;1.00;;;;;;5098070;28;20226;-57
2022/04/17 02:05:48;;;;;;;14.73;12.53;;;;;;;;;;5106510;28;20277;-55
2022/04/17 02:08:15;;;;;;;15.03;13.30;;;5.80;1.00;;;;;;5106518;28;20264;-56
2022/04/17 02:10:40;;;;;;;17.90;12.37;;;6.00;1.00;;;;;;5101477;28;20456;-58
2022/04/17 02:13:06;;;;;;;13.87;12.03;;;;;;;;;;5108212;28;20467;-57
2022/04/17 02:15:33;;;;;;;22.80;11.63;;;5.70;1.00;;;;;;5099026;28;20225;-56
2022/04/17 02:17:58;;;;;;;15.30;11.63;;;5.70;1.00;;;;;;5091487;28;20815;-55
2022/04/17 02:20:24;;;;;;;15.10;10.63;;;5.80;1.00;;;;;;5096730;28;20441;-56
2022/04/17 02:22:49;;;;;;;12.80;10.30;;;5.70;1.00;;;;;;5108141;28;20186;-57
2022/04/17 02:25:15;;;;;;;12.60;10.97;;;5.70;1.00;;;;;;5099046;28;20632;-57
2022/04/17 02:27:40;;;;;;;13.70;10.90;;;5.60;1.00;;;;;;5096915;28;20190;-56
2022/04/17 02:30:08;;;;;;;16.17;11.80;;;5.60;1.00;;;;;;5100501;28;20236;-56
2022/04/17 02:32:34;;;;;;;13.07;11.67;;;5.60;1.00;;;;;;5092772;28;20207;-57
2022/04/17 02:34:59;;;;;;;11.70;10.30;;;5.60;1.00;;;;;;5092777;28;20776;-55
2022/04/17 02:37:25;;;;;;;11.83;10.60;;;5.60;1.00;;;;;;5097180;28;20579;-55
2022/04/17 02:39:51;;;;;;;12.00;10.47;;;;;;;;;;5097666;28;20186;-56
2022/04/17 02:42:16;;;;;;;14.30;11.27;;;5.50;1.00;;;;;;5103935;28;20604;-57
2022/04/17 02:44:42;;;;;;;11.40;10.27;;;5.40;1.00;;;;;;5099324;28;20443;-55
2022/04/17 02:49:51;;;;;;;11.97;10.23;;;5.50;1.00;;;;;;5107544;28;20834;-56
2022/04/17 02:52:17;;;;;;;11.00;9.33;;;5.50;1.00;;;;;;5106907;28;20448;-56
2022/04/17 02:54:42;;;;;;;13.33;9.13;;;5.40;1.00;;;;;;5103176;28;20181;-56
2022/04/17 02:57:08;;;;;;;12.00;8.80;;;5.50;1.00;;;;;;5101623;28;20187;-56
2022/04/17 02:59:33;;;;;;;10.30;8.10;;;5.60;1.00;;;;;;5102761;28;20193;-57
2022/04/17 03:07:29;;;;;;;11.07;9.87;;;5.40;1.00;;;;;;5107127;28;20531;-55
2022/04/17 03:09:54;;;;;;;10.57;8.10;;;5.30;1.00;;;;;;5102758;28;20452;-58
2022/04/17 03:12:20;;;;;;;10.73;9.13;;;5.40;1.00;;;;;;5102456;28;20443;-57
2022/04/17 03:14:46;;;;;;;12.83;9.03;;;;;;;;;;5097736;28;20632;-56
2022/04/17 03:17:12;;;;;;;13.53;9.03;;;5.50;1.00;;;;;;5108630;28;20182;-56
2022/04/17 03:19:37;;;;;;;11.87;9.03;;;5.50;1.00;;;;;;5101469;28;21067;-56
2022/04/17 03:22:04;;;;;;;9.93;8.47;;;5.40;1.00;;;;;;5110097;28;20431;-58
2022/04/17 03:24:31;;;;;;;11.20;9.10;;;5.40;1.00;;;;;;5100723;28;20276;-57
2022/04/17 03:26:57;;;;;;;9.67;8.67;;;5.40;1.00;;;;;;5100712;28;20442;-55
2022/04/17 03:29:23;;;;;;;9.83;8.83;;;5.30;1.00;;;;;;5103076;28;20527;-56
2022/04/17 03:31:49;;;;;;;11.13;10.13;;;5.20;1.00;;;;;;5099649;28;20797;-56
2022/04/17 03:34:14;;;;;;;13.90;9.97;;;5.20;1.00;;;;;;5098122;28;20213;-54
2022/04/17 03:36:40;;;;;;;12.57;11.20;;;;;;;;;;5101454;28;20196;-56
2022/04/17 03:39:06;;;;;;;13.40;10.33;;;5.20;1.00;;;;;;5099033;28;20223;-57
2022/04/17 03:41:32;;;;;;;11.60;10.40;;;5.20;1.00;;;;;;5107933;28;21025;-56
2022/04/17 03:43:57;;;;;;;13.03;10.50;;;5.20;1.00;;;;;;5101099;28;20448;-57
2022/04/17 03:46:23;;;;;;;12.93;9.20;;;5.20;1.00;;;;;;5102573;28;20183;-57
2022/04/17 03:48:48;;;;;;;13.30;9.70;;;2.70;1.00;;;;;;5101656;28;20277;-57
2022/04/17 03:51:14;;;;;;;14.40;10.57;;;5.20;1.00;;;;;;5103366;28;20190;-56
2022/04/17 03:53:40;;;;;;;12.10;10.57;;;5.20;1.00;;;;;;5100067;28;20282;-55
2022/04/17 03:56:28;;;;;;;15.77;11.20;;;5.20;1.00;;;;;;5102509;28;20174;-55
2022/04/17 03:58:54;;;;;;;15.10;13.60;;;5.10;1.00;;;;;;5089203;28;20448;-56
2022/04/17 04:01:20;;;;;;;16.63;12.33;;;5.10;1.00;;;;;;5097534;28;20444;-56
2022/04/17 04:03:47;;;;;;;13.00;11.30;;;5.10;1.00;;;;;;5100356;28;20270;-55
2022/04/17 04:06:12;;;;;;;13.43;11.30;;;5.10;1.00;;;;;;5098609;28;20605;-56
2022/04/17 04:08:38;;;;;;;12.50;10.80;;;5.10;1.00;;;;;;5098603;28;20531;-57
2022/04/17 04:11:09;;;;;;;11.80;10.00;;;6.90;1.00;;;;;;5104875;28;20191;-56
2022/04/17 04:13:35;;;;;;;10.83;9.70;;;5.10;1.00;;;;;;5109518;28;20217;-57
2022/04/17 04:16:01;;;;;;;11.50;10.30;;;5.10;1.00;;;;;;5096786;28;20514;-56
2022/04/17 04:18:27;;;;;;;15.17;10.43;;;5.00;1.00;;;;;;5106889;28;20182;-56
2022/04/17 04:20:52;;;;;;;12.67;10.10;;;6.60;1.00;;;;;;5097296;28;20875;-57
2022/04/17 04:23:21;;;;;;;10.40;9.30;;;5.00;1.00;;;;;;5102250;28;20185;-57
2022/04/17 04:25:46;;;;;;;12.50;9.70;;;4.90;1.00;;;;;;5104314;28;20196;-57
2022/04/17 04:30:56;;;;;;;11.37;9.77;;;5.00;1.00;;;;;;5097636;28;20323;-55
2022/04/17 04:33:21;;;;;;;11.60;10.33;;;5.10;1.00;;;;;;5096020;28;21333;-54
2022/04/17 04:35:47;;;;;;;16.07;12.73;;;5.20;1.00;;;;;;5095040;28;20190;-56
2022/04/17 04:38:12;;;;;;;12.83;10.27;;;5.20;1.00;;;;;;5095093;28;20194;-55
2022/04/17 04:40:38;;;;;;;12.40;11.17;;;5.30;1.00;;;;;;5104193;28;20239;-57
2022/04/17 04:43:04;;;;;;;13.00;10.00;;;5.30;1.00;;;;;;5105315;28;20193;-56
2022/04/17 04:48:14;;;;;;;15.10;10.23;;;5.30;1.00;;;;;;5104497;28;20592;-56
2022/04/17 04:50:41;;;;;;;11.20;9.57;;;5.40;1.00;;;;;;5099004;28;20948;-56
2022/04/17 04:53:07;;;;;;;16.03;10.60;;;5.40;1.00;;;;;;5103451;28;20625;-55
2022/04/17 04:55:33;;;;;;;12.80;10.40;;;5.50;1.00;;;;;;5101170;28;20566;-56
2022/04/17 04:58:01;;;;;;;11.60;10.13;;;5.50;1.00;;;;;;5103707;28;20532;-56
2022/04/17 05:00:26;;;;;;;11.13;10.00;;;5.40;1.00;;;;;;5098287;28;20634;-56
2022/04/17 05:02:52;;;;;;;11.60;10.40;;;5.40;1.00;;;;;;5095425;28;20479;-56
2022/04/17 05:05:17;;;;;;;12.57;11.27;;;5.40;1.00;;;;;;5100340;28;20245;-55
2022/04/17 05:07:43;;;;;;;17.20;11.00;;;5.50;1.00;;;;;;5105473;28;20193;-56
2022/04/17 05:10:08;;;;;;;20.40;9.80;;;5.50;1.00;;;;;;5101470;28;20186;-55
2022/04/17 05:12:34;;;;;;;10.80;9.70;;;5.50;1.00;;;;;;5100587;28;20232;-55
2022/04/17 05:15:00;;;;;;;12.80;9.67;;;5.70;1.00;;;;;;5102304;28;20197;-56
2022/04/17 05:17:26;;;;;;;12.50;9.90;;;5.70;1.00;;;;;;5100947;28;20191;-56
2022/04/17 05:19:51;;;;;;;11.10;9.90;;;5.80;1.00;;;;;;5096629;28;20618;-56
2022/04/17 05:22:17;;;;;;;12.93;11.37;;;5.90;1.00;;;;;;5100563;28;20182;-56
2022/04/17 05:24:44;;;;;;;9.90;8.67;;;5.90;1.00;;;;;;5097549;28;20217;-56
2022/04/17 05:27:10;;;;;;;10.70;8.37;;;6.00;1.00;;;;;;5096112;28;20482;-56
2022/04/17 05:29:35;;;;;;;9.70;8.67;;;6.10;1.00;;;;;;5100477;28;20495;-56
2022/04/17 05:32:01;;;;;;;9.17;7.93;;;6.10;1.00;;;;;;5100026;28;20447;-55
2022/04/17 05:34:27;;;;;;;15.97;9.20;;;6.20;1.00;;;;;;5105062;28;20214;-56
2022/04/17 05:36:53;;;;;;;9.37;8.40;;;6.30;1.00;;;;;;5098605;28;20178;-56
2022/04/17 05:39:18;;;;;;;10.60;8.90;;;6.40;1.00;;;;;;5102731;28;20824;-57
2022/04/17 05:41:45;;;;;;;9.80;8.50;;;6.40;1.00;;;;;;5103526;28;20455;-57
2022/04/17 05:44:12;;;;;;;9.30;8.47;;;6.50;1.00;;;;;;5099907;28;20311;-55
2022/04/17 05:46:39;;;;;;;10.97;8.87;;;6.60;1.00;;;;;;5101400;28;21069;-57
2022/04/17 05:49:06;;;;;;;11.50;10.20;;;6.70;1.00;;;;;;5099484;28;20448;-57
2022/04/17 05:51:36;;;;;;;12.37;9.53;;;6.70;1.00;;;;;;5097649;28;20912;-57
2022/04/17 05:54:07;;;;;;;11.90;10.27;;;6.70;1.00;;;;;;5096558;28;20473;-58
2022/04/17 05:56:33;;;;;;;11.10;9.47;;;6.70;1.00;;;;;;5101900;28;20790;-57
2022/04/17 05:59:00;;;;;;;14.47;9.67;;;6.70;1.00;;;;;;5099944;28;20477;-55
2022/04/17 06:01:26;;;;;;;10.47;9.10;;;;;;;;;;5099967;28;20443;-57
2022/04/17 06:03:52;;;;;;;10.40;9.30;;;6.80;1.00;;;;;;5102231;28;20475;-56
2022/04/17 06:06:19;;;;;;;10.13;9.10;;;6.90;1.00;;;;;;5102383;28;20451;-57
2022/04/17 06:08:48;;;;;;;10.60;9.23;;;7.00;1.00;;;;;;5099420;28;20187;-57
2022/04/17 06:11:13;;;;;;;10.47;9.00;;;7.20;1.00;;;;;;5101482;28;20455;-56
2022/04/17 06:13:39;;;;;;;11.67;9.80;;;7.20;1.00;;;;;;5102081;28;20992;-57
2022/04/17 06:16:28;;;;;;;12.50;9.10;;;7.20;1.00;;;;;;5094280;28;20555;-56
2022/04/17 06:18:54;;;;;;;17.07;10.20;;;7.40;1.00;;;;;;5090856;28;20186;-56
2022/04/17 06:21:20;;;;;;;12.20;9.40;;;;;;;;;;5099791;28;20776;-57
2022/04/17 06:23:45;;;;;;;10.60;9.37;;;7.60;1.00;;;;;;5101112;28;20235;-58
2022/04/17 06:26:17;;;;;;;11.17;10.07;;;7.70;1.00;;;;;;5103748;28;20464;-56
2022/04/17 06:28:42;;;;;;;12.30;10.10;;;7.90;1.00;;;;;;5104237;28;20193;-56
2022/04/17 06:31:11;;;;;;;11.77;10.00;;;8.00;1.00;;;;;;5105559;28;20782;-56
2022/04/17 06:33:36;;;;;;;10.43;9.30;;;8.10;1.00;;;;;;5104458;28;20215;-55
2022/04/17 06:36:02;;;;;;;13.70;9.93;;;8.10;1.00;;;;;;5104781;28;20447;-56
2022/04/17 06:38:28;;;;;;;9.63;8.73;;;8.30;1.00;;;;;;5104712;28;20197;-56
2022/04/17 06:40:53;;;;;;;11.60;9.70;;;8.40;1.00;;;;;;5106061;28;20182;-61
2022/04/17 06:43:19;;;;;;;10.13;9.20;;;8.40;1.00;;;;;;5109591;28;20448;-60
2022/04/17 06:45:44;;;;;;;11.27;8.77;;;8.20;1.00;;;;;;5107881;28;20706;-60
2022/04/17 06:48:15;;;;;;;10.33;9.07;;;8.40;1.00;;;;;;5106504;28;20189;-58
2022/04/17 06:50:42;;;;;;;9.93;8.90;;;8.40;1.00;;;;;;5103075;28;20186;-59
2022/04/17 06:53:07;;;;;;;10.10;8.50;;;8.60;1.00;;;;;;5107248;28;20494;-59
2022/04/17 06:55:33;;;;;;;9.33;8.40;;;8.80;1.00;;;;;;5105282;28;20451;-60
2022/04/17 06:57:59;;;;;;;10.67;8.17;;;9.10;1.00;;;;;;5107894;28;20186;-58
2022/04/17 07:00:24;;;;;;;7.80;7.13;;;9.20;1.00;;;;;;5104402;28;20447;-58
2022/04/17 07:02:51;;;;;;;8.50;7.50;;;9.30;1.00;;;;;;5100721;28;20183;-58
2022/04/17 07:05:17;;;;;;;8.40;7.47;;;9.60;1.00;;;;;;5109030;28;20834;-58
2022/04/17 07:07:42;;;;;;;9.43;7.53;;;9.80;1.00;;;;;;5100154;28;20438;-59
2022/04/17 07:10:09;;;;;;;9.50;7.23;;;10.00;1.00;;;;;;5096453;28;20647;-58
2022/04/17 07:12:35;;;;;;;10.10;8.10;;;10.00;1.00;;;;;;5107415;28;20214;-60
2022/04/17 07:15:02;;;;;;;9.17;6.87;;;10.20;1.00;;;;;;5099840;28;21105;-59
2022/04/17 07:17:39;;;;;;;7.50;6.80;;;10.30;1.00;;;;;;5105431;28;20462;-59
2022/04/17 07:20:06;;;;;;;9.47;8.00;;;10.20;1.00;;;;;;5105746;28;20467;-59
2022/04/17 07:22:33;;;;;;;8.67;7.20;;;10.20;1.00;;;;;;5108092;28;20782;-59
2022/04/17 07:25:01;;;;;;;7.63;6.93;;;10.40;1.00;;;;;;5103306;28;20492;-58
2022/04/17 07:27:27;;;;;;;8.73;7.87;;;10.30;1.00;;;;;;5101779;28;20984;-58
2022/04/17 07:29:53;;;;;;;10.03;7.43;;;10.20;1.00;;;;;;5106249;28;20437;-58
2022/04/17 07:32:19;;;;;;;8.20;7.40;;;;;;;;;;5097915;28;20462;-57
2022/04/17 07:34:45;;;;;;;7.23;6.53;;;10.20;1.00;;;;;;5096845;28;20624;-57
2022/04/17 07:37:10;;;;;;;7.33;6.73;;;10.40;1.00;;;;;;5103487;28;20445;-58
2022/04/17 07:39:36;;;;;;;12.10;7.67;;;10.30;1.00;;;;;;5101178;28;20178;-60
2022/04/17 07:42:01;;;;;;;7.50;6.60;;;10.30;1.00;;;;;;5099184;28;20185;-59
2022/04/17 07:44:29;;;;;;;7.60;6.90;;;10.50;1.00;;;;;;5103557;28;20201;-59
2022/04/17 07:46:55;;;;;;;9.77;8.10;;;10.60;1.00;;;;;;5111171;28;20182;-59
2022/04/17 07:49:21;;;;;;;9.70;8.67;;;10.90;1.00;;;;;;5103271;28;20440;-59
2022/04/17 07:51:46;;;;;;;8.40;7.60;;;10.80;1.00;;;;;;5104726;28;20254;-60
2022/04/17 07:54:12;;;;;;;9.63;8.23;;;10.90;1.00;;;;;;5107305;28;20213;-59
2022/04/17 07:56:37;;;;;;;8.73;7.30;;;10.90;1.00;;;;;;5103072;28;20191;-58
2022/04/17 07:59:04;;;;;;;10.43;7.60;;;11.00;1.00;;;;;;5104501;28;20178;-58
2022/04/17 08:01:33;;;;;;;9.00;8.10;;;11.00;1.00;;;;;;5101062;28;20201;-59
2022/04/17 08:03:58;;;;;;;10.03;7.37;;;10.70;1.00;;;;;;5100354;28;20480;-59
2022/04/17 08:06:24;;;;;;;9.10;7.37;;;;;;;;;;5102349;28;20451;-59
2022/04/17 08:08:52;;;;;;;8.47;6.60;;;11.20;1.00;;;;;;5101013;28;20190;-59
2022/04/17 08:11:18;;;;;;;8.63;7.30;;;11.30;1.00;;;;;;5101871;28;20448;-59
2022/04/17 08:13:46;;;;;;;11.00;8.33;;;;;;;;;;5094903;28;20821;-59
2022/04/17 08:16:13;;;;;;;9.97;7.20;;;11.90;1.00;;;;;;5101476;27;20214;-60
2022/04/17 08:18:38;;;;;;;8.30;6.90;;;11.90;1.00;;;;;;5099809;28;20467;-59
2022/04/17 08:21:12;;;;;;;7.97;7.17;;;11.60;1.00;;;;;;5102397;28;20466;-58
2022/04/17 08:23:38;;;;;;;11.67;9.80;;;11.60;1.00;;;;;;5102567;28;20827;-60
2022/04/17 08:26:29;;;;;;;8.30;7.50;;;11.80;1.00;;;;;;5101228;28;20443;-60
2022/04/17 08:28:55;;;;;;;8.40;7.60;;;12.00;1.00;;;;;;5071457;28;20808;-58
2022/04/17 08:31:20;;;;;;;9.50;6.50;;;12.20;1.00;;;;;;5104083;28;20476;-59
2022/04/17 08:33:46;;;;;;;9.80;6.60;;;12.20;1.00;;;;;;5098018;28;20214;-59
2022/04/17 08:36:15;;;;;;;9.57;6.77;;;12.10;1.00;;;;;;5101583;28;20182;-61
2022/04/17 08:38:42;;;;;;;9.67;7.70;;;12.10;1.00;;;;;;5104779;28;20519;-60
2022/04/17 08:41:15;;;;;;;9.93;7.77;;;12.20;1.00;;;;;;5097693;28;21163;-60
2022/04/17 08:43:43;;;;;;;7.23;5.17;;;12.40;1.00;;;;;;5099795;28;20989;-60
2022/04/17 08:46:12;;;;;;;4.77;4.27;;;12.30;1.00;;;;;;5098299;28;20770;-60
2022/04/17 08:48:38;;;;;;;4.87;4.17;;;12.10;1.00;;;;;;5098635;28;20532;-61
2022/04/17 08:51:11;;;;;;;4.00;2.80;;;12.10;1.00;;;;;;5102892;28;20534;-60
2022/04/17 08:53:39;;;;;;;5.53;3.13;;;12.10;1.00;;;;;;5102431;28;20202;-59
2022/04/17 08:56:12;;;;;;;3.10;2.47;;;12.10;1.00;;;;;;5104905;28;20496;-60
2022/04/17 08:58:37;;;;;;;4.57;3.00;;;11.90;1.00;;;;;;5106850;28;20782;-60
2022/04/17 09:01:03;;;;;;;4.87;4.10;;;11.80;1.00;;;;;;5100316;28;20451;-60
2022/04/17 09:03:29;;;;;;;6.13;3.53;;;11.80;1.00;;;;;;5101702;28;20213;-59
2022/04/17 09:05:54;;;;;;;4.20;3.50;;;11.80;1.00;;;;;;5100116;28;20285;-59
2022/04/17 09:08:23;;;;;;;5.37;4.40;;;11.80;1.00;;;;;;5101271;28;21009;-59
2022/04/17 09:10:56;;;;;;;5.67;3.67;;;12.20;1.00;;;;;;5102086;28;20195;-59
2022/04/17 09:13:41;;;;;;;3.50;3.00;;;12.80;1.00;;;;;;5098979;28;20887;-59
2022/04/17 09:16:12;;;;;;;4.63;3.37;;;13.00;1.00;;;;;;5103554;28;20464;-59
2022/04/17 09:18:38;;;;;;;3.53;2.63;;;13.00;1.00;;;;;;5107080;28;20445;-58
2022/04/17 09:21:10;;;;;;;4.20;2.20;;;12.80;1.00;;;;;;5102245;28;20443;-60
2022/04/17 09:23:38;;;;;;;2.67;2.13;;;12.90;1.00;;;;;;5096168;28;20455;-58
2022/04/17 09:26:23;;;;;;;3.10;2.03;;;12.90;1.00;;;;;;5097904;28;20441;-57
2022/04/17 09:28:48;;;;;;;4.20;2.60;;;15.10;1.00;;;;;;5102080;28;20970;-57
2022/04/17 09:31:15;;;;;;;3.30;2.27;;;14.10;1.00;;;;;;5100971;28;20444;-58
2022/04/17 09:33:42;;;;;;;2.17;1.97;;;14.20;1.00;;;;;;5099968;28;20686;-58
2022/04/17 09:36:29;;;;;;;3.53;3.23;;;14.10;1.00;;;;;;5097311;28;20448;-59
2022/04/17 09:39:14;;;;;;;3.63;2.53;;;14.30;1.00;;;;;;5104997;28;20436;-57
2022/04/17 09:42:03;;;;;;;2.90;1.90;;;14.30;1.00;;;;;;5101264;28;20452;-57
2022/04/17 09:44:35;;;;;;;2.80;2.10;;;14.50;1.00;;;;;;5101127;28;20471;-59
2022/04/17 09:47:02;;;;;;;2.83;2.60;;;14.60;1.00;;;;;;5094758;28;20969;-59
2022/04/17 09:49:27;;;;;;;3.17;2.10;;;14.50;1.00;;;;;;5097059;28;20440;-59
2022/04/17 09:52:09;;;;;;;4.17;2.33;;;14.40;1.00;;;;;;5103103;28;20938;-59
2022/04/17 09:54:35;;;;;;;2.80;2.07;;;;;;;;;;5102988;28;20229;-59
2022/04/17 09:57:01;;;;;;;9.33;3.27;;;13.80;1.00;;;;;;5096036;28;20452;-58
2022/04/17 09:59:27;;;;;;;2.43;2.23;;;13.20;1.00;;;;;;5101266;28;20812;-58
2022/04/17 10:01:57;;;;;;;3.53;2.70;;;13.10;1.00;;;;;;5101857;28;20647;-58
2022/04/17 10:04:24;;;;;;;4.40;2.20;;;13.10;1.00;;;;;;5097694;28;20471;-58
2022/04/17 10:06:51;;;;;;;3.00;2.10;;;13.20;1.00;;;;;;5094176;28;20545;-59
2022/04/17 10:09:17;;;;;;;2.13;1.83;;;;;;;;;;5102155;28;20440;-59
2022/04/17 10:11:43;;;;;;;3.80;2.60;;;13.80;1.00;;;;;;5102672;28;20444;-58
2022/04/17 10:14:09;;;;;;;3.00;2.10;;;13.80;1.00;;;;;;5094965;28;20459;-60
2022/04/17 10:16:38;;;;;;;2.50;2.20;;;13.70;1.00;;;;;;5097876;28;20213;-58
2022/04/17 10:19:13;;;;;;;4.70;2.00;;;14.30;1.00;;;;;;5094951;28;20504;-58
2022/04/17 10:21:40;;;;;;;2.40;2.20;;;14.30;1.00;;;;;;5100585;28;20443;-57
2022/04/17 10:24:07;;;;;;;3.23;2.20;;;14.60;1.00;;;;;;5098747;28;20448;-58
2022/04/17 10:26:40;;;;;;;2.30;2.10;;;14.90;1.00;;;;;;5100159;28;20531;-57
2022/04/17 10:29:12;;;;;;;3.90;2.97;;;15.20;1.00;;;;;;5096805;28;20971;-58
2022/04/17 10:31:56;;;;;;;3.10;2.57;;;15.10;1.00;;;;;;5093455;28;20444;-58
2022/04/17 10:34:59;;;;;;;2.30;1.90;;;14.70;1.00;;;;;;5101030;28;20463;-60
2022/04/17 10:38:02;;;;;;;2.07;1.80;;;14.70;1.00;;;;;;5097364;28;20922;-59
2022/04/17 10:40:31;;;;;;;2.17;1.87;;;14.60;1.00;;;;;;5095328;28;20440;-59
2022/04/17 10:42:59;;;;;;;3.00;1.60;;;14.40;1.00;;;;;;5099136;28;20968;-57
2022/04/17 10:45:26;;;;;;;2.60;2.20;;;14.60;1.00;;;;;;5106045;28;20439;-57
2022/04/17 10:48:26;;;;;;;4.40;2.30;;;14.90;1.00;;;;;;5110262;28;20463;-57
2022/04/17 10:50:52;;;;;;;2.70;1.60;;;15.10;1.00;;;;;;5095771;28;20954;-58
2022/04/17 10:53:31;;;;;;;2.50;1.70;;;15.10;1.00;;;;;;5110239;28;20478;-59
2022/04/17 10:56:15;;;;;;;2.70;1.87;;;15.00;1.00;;;;;;5110505;28;20499;-58
2022/04/17 10:58:48;;;;;;;1.77;1.60;;;15.10;1.00;;;;;;5089605;28;20528;-59
2022/04/17 11:01:14;;;;;;;2.43;1.90;;;15.30;1.00;;;;;;5099685;28;20937;-58
2022/04/17 11:03:52;;;;;;;1.93;1.70;;;15.20;1.00;;;;;;5102503;28;20504;-57
2022/04/17 11:06:30;;;;;;;2.70;2.10;;;15.00;1.00;;;;;;5101704;28;20186;-59
2022/04/17 11:09:06;;;;;;;2.13;1.90;;;14.80;1.00;;;;;;5101346;28;20786;-56
2022/04/17 11:11:43;;;;;;;4.40;2.07;;;14.60;1.00;;;;;;5100676;28;20432;-59
2022/04/17 11:14:11;;;;;;;5.60;1.93;;;14.80;1.00;;;;;;5100158;28;20543;-58
2022/04/17 11:16:49;;;;;;;2.40;1.83;;;14.80;1.00;;;;;;5110035;28;20443;-58
2022/04/17 11:19:18;;;;;;;2.67;1.27;;;14.80;1.00;;;;;;5096403;28;20432;-58
2022/04/17 11:21:47;;;;;;;3.20;2.00;;;14.60;1.00;;;;;;5100975;28;20472;-59
2022/04/17 11:24:13;;;;;;;2.60;1.50;;;14.20;1.00;;;;;;5105271;28;20422;-57
2022/04/17 11:26:53;;;;;;;1.87;1.73;;;14.20;1.00;;;;;;5105109;28;20971;-59
2022/04/17 11:29:39;;;;;;;1.97;1.77;;;14.40;1.00;;;;;;5102473;28;20440;-57
2022/04/17 11:32:27;;;;;;;1.97;1.50;;;14.70;1.00;;;;;;5105106;28;20738;-58
2022/04/17 11:34:54;;;;;;;2.60;1.63;;;14.90;1.00;;;;;;5112517;28;20439;-56
2022/04/17 11:37:20;;;;;;;1.67;1.40;;;14.80;1.00;;;;;;5105797;28;20428;-57
2022/04/17 11:39:46;;;;;;;1.70;1.50;;;14.90;1.00;;;;;;5106877;28;20937;-57
2022/04/17 11:42:12;;;;;;;2.13;1.90;;;14.70;1.00;;;;;;5109350;27;20182;-57
2022/04/17 11:44:42;;;;;;;2.57;1.33;;;14.80;1.00;;;;;;5106443;28;20443;-59
2022/04/17 11:47:12;;;;;;;2.00;1.37;;;15.00;1.00;;;;;;5102044;28;20441;-58
2022/04/17 11:49:42;;;;;;;3.23;1.40;;;15.30;1.00;;;;;;5102270;28;20444;-57
2022/04/17 11:52:11;;;;;;;2.30;1.80;;;15.40;1.00;;;;;;5110143;28;20438;-58
2022/04/17 11:54:37;;;;;;;2.60;1.40;;;15.40;1.00;;;;;;5108949;28;20798;-58
2022/04/17 11:57:02;;;;;;;6.80;2.07;;;15.60;1.00;;;;;;5110941;28;20558;-57
2022/04/17 11:59:28;;;;;;;1.73;1.60;;;15.60;1.00;;;;;;5099798;28;20467;-57
2022/04/17 12:02:09;;;;;;;3.80;1.67;;;15.60;1.00;;;;;;5104065;28;20205;-57
2022/04/17 12:04:36;;;;;;;2.40;1.57;;;15.60;1.00;;;;;;5106962;28;21611;-57
2022/04/17 12:07:02;;;;;;;2.90;1.67;;;15.60;1.00;;;;;;5098741;28;20476;-59
2022/04/17 12:09:28;;;;;;;2.80;1.70;;;15.50;1.00;;;;;;5094912;28;20499;-58
2022/04/17 12:11:54;;;;;;;2.30;1.70;;;;;;;;;;5102797;28;20451;-58
2022/04/17 12:14:32;;;;;;;3.93;1.90;;;15.20;1.00;;;;;;5099422;28;20463;-57
2022/04/17 12:16:58;;;;;;;1.87;1.53;;;14.60;1.00;;;;;;5106296;28;20545;-58
2022/04/17 12:19:25;;;;;;;3.20;2.37;;;14.60;1.00;;;;;;5103063;28;20767;-58
2022/04/17 12:21:51;;;;;;;1.93;1.70;;;14.60;1.00;;;;;;5101691;28;20443;-58
2022/04/17 12:24:16;;;;;;;4.47;2.37;;;15.10;1.00;;;;;;5104902;28;20817;-57
2022/04/17 12:26:43;;;;;;;2.80;2.00;;;15.20;1.00;;;;;;5102233;28;20436;-58
2022/04/17 12:29:08;;;;;;;3.00;1.87;;;15.30;1.00;;;;;;5107643;28;20182;-58
2022/04/17 12:31:34;;;;;;;4.50;2.47;;;15.30;1.00;;;;;;5099490;28;20436;-58
2022/04/17 12:34:09;;;;;;;2.90;2.30;;;15.40;1.00;;;;;;5100161;28;20310;-58
2022/04/17 12:36:37;;;;;;;2.70;2.47;;;15.60;1.00;;;;;;5096074;28;20179;-58
2022/04/17 12:39:04;;;;;;;2.17;1.93;;;15.60;1.00;;;;;;5108793;28;20577;-58
2022/04/17 12:41:40;;;;;;;4.17;2.17;;;15.60;1.00;;;;;;5100592;28;20514;-57
2022/04/17 12:44:06;;;;;;;3.57;2.60;;;15.20;1.00;;;;;;5095198;28;20466;-58
2022/04/17 12:46:33;;;;;;;3.13;2.37;;;15.10;1.00;;;;;;5104396;28;20448;-58
2022/04/17 12:49:07;;;;;;;2.20;1.87;;;15.40;1.00;;;;;;5104921;28;20933;-58
2022/04/17 12:51:34;;;;;;;2.83;1.90;;;15.10;1.00;;;;;;5100829;28;20860;-57
2022/04/17 12:54:02;;;;;;;2.30;2.10;;;15.20;1.00;;;;;;5106415;28;20459;-58
2022/04/17 12:56:28;;;;;;;4.30;1.80;;;15.50;1.00;;;;;;5102812;28;20477;-59
2022/04/17 12:58:58;;;;;;;2.00;1.70;;;15.90;1.00;;;;;;5097468;28;20885;-58
2022/04/17 13:01:25;;;;;;;3.10;1.87;;;16.00;1.00;;;;;;5110888;28;20543;-59
2022/04/17 13:03:54;;;;;;;2.33;1.90;;;16.10;1.00;;;;;;5110787;28;21245;-58
2022/04/17 13:06:23;;;;;;;2.33;1.90;;;15.80;1.00;;;;;;5110736;28;20543;-58
2022/04/17 13:09:18;;;;;;;3.47;2.10;;;15.70;1.00;;;;;;5102051;28;20445;-58
2022/04/17 13:11:52;;;;;;;3.80;1.90;;;15.70;1.00;;;;;;5100091;28;20443;-58
2022/04/17 13:14:19;;;;;;;2.50;2.03;;;15.60;1.00;;;;;;5092111;28;20551;-58
2022/04/17 13:16:50;;;;;;;1.93;1.77;;;15.60;1.00;;;;;;5110434;28;20945;-59
2022/04/17 13:19:17;;;;;;;3.50;1.80;;;15.20;1.00;;;;;;5103966;28;20467;-58
2022/04/17 13:21:42;;;;;;;2.30;2.10;;;15.10;1.00;;;;;;5094861;28;20433;-57